sensor_id;sensor_type;location;lat;lon;timestamp;P1;durP1;ratioP1;P2;durP2;ratioP2
18776;SDS011;9517;51.174;4.160;2022-09-28T00:00:11;19.23;;;8.30;;
18776;SDS011;9517;51.174;4.160;2022-09-28T00:02:39;16.03;;;8.20;;
18776;SDS011;9517;51.174;4.160;2022-09-28T00:05:06;15.30;;;8.50;;
18776;SDS011;9517;51.174;4.160;2022-09-28T00:07:36;18.63;;;8.93;;
18776;SDS011;9517;51.174;4.160;2022-09-28T00:10:04;17.20;;;8.77;;
18776;SDS011;9517;51.174;4.160;2022-09-28T00:12:33;16.07;;;8.30;;
18776;SDS011;9517;51.174;4.160;2022-09-28T00:15:00;21.60;;;9.13;;
18776;SDS011;9517;51.174;4.160;2022-09-28T00:17:27;14.43;;;7.37;;
18776;SDS011;9517;51.174;4.160;2022-09-28T00:19:54;16.13;;;7.67;;
18776;SDS011;9517;51.174;4.160;2022-09-28T00:22:22;14.57;;;7.80;;
18776;SDS011;9517;51.174;4.160;2022-09-28T00:24:49;16.63;;;8.83;;
18776;SDS011;9517;51.174;4.160;2022-09-28T00:27:16;18.10;;;8.73;;
18776;SDS011;9517;51.174;4.160;2022-09-28T00:29:45;17.83;;;9.67;;
18776;SDS011;9517;51.174;4.160;2022-09-28T00:32:12;17.83;;;10.17;;
18776;SDS011;9517;51.174;4.160;2022-09-28T00:34:41;18.40;;;9.43;;
18776;SDS011;9517;51.174;4.160;2022-09-28T00:37:10;17.43;;;9.53;;
18776;SDS011;9517;51.174;4.160;2022-09-28T00:39:38;16.57;;;9.07;;
18776;SDS011;9517;51.174;4.160;2022-09-28T00:42:10;21.43;;;9.70;;
18776;SDS011;9517;51.174;4.160;2022-09-28T00:44:43;20.43;;;9.87;;
18776;SDS011;9517;51.174;4.160;2022-09-28T00:47:16;19.27;;;10.40;;
18776;SDS011;9517;51.174;4.160;2022-09-28T00:49:53;17.60;;;10.23;;
18776;SDS011;9517;51.174;4.160;2022-09-28T00:52:24;22.63;;;9.80;;
18776;SDS011;9517;51.174;4.160;2022-09-28T00:54:58;21.00;;;11.43;;
18776;SDS011;9517;51.174;4.160;2022-09-28T00:57:27;20.37;;;11.23;;
18776;SDS011;9517;51.174;4.160;2022-09-28T00:59:57;22.43;;;12.40;;
18776;SDS011;9517;51.174;4.160;2022-09-28T01:02:27;20.87;;;12.93;;
18776;SDS011;9517;51.174;4.160;2022-09-28T01:04:55;25.23;;;12.77;;
18776;SDS011;9517;51.174;4.160;2022-09-28T01:07:23;22.27;;;13.37;;
18776;SDS011;9517;51.174;4.160;2022-09-28T01:09:50;25.07;;;13.47;;
18776;SDS011;9517;51.174;4.160;2022-09-28T01:12:20;27.93;;;13.57;;
18776;SDS011;9517;51.174;4.160;2022-09-28T01:14:47;22.77;;;13.63;;
18776;SDS011;9517;51.174;4.160;2022-09-28T01:17:18;22.33;;;14.23;;
18776;SDS011;9517;51.174;4.160;2022-09-28T01:19:58;22.43;;;11.90;;
18776;SDS011;9517;51.174;4.160;2022-09-28T01:25:43;23.00;;;12.67;;
18776;SDS011;9517;51.174;4.160;2022-09-28T01:28:17;25.10;;;13.03;;
18776;SDS011;9517;51.174;4.160;2022-09-28T01:30:48;21.27;;;11.60;;
18776;SDS011;9517;51.174;4.160;2022-09-28T01:33:22;19.67;;;10.93;;
18776;SDS011;9517;51.174;4.160;2022-09-28T01:35:53;20.80;;;11.37;;
18776;SDS011;9517;51.174;4.160;2022-09-28T01:38:28;20.40;;;11.57;;
18776;SDS011;9517;51.174;4.160;2022-09-28T01:40:59;20.27;;;10.83;;
18776;SDS011;9517;51.174;4.160;2022-09-28T01:43:29;19.97;;;11.33;;
18776;SDS011;9517;51.174;4.160;2022-09-28T01:46:00;19.50;;;10.77;;
18776;SDS011;9517;51.174;4.160;2022-09-28T01:48:33;20.80;;;10.80;;
18776;SDS011;9517;51.174;4.160;2022-09-28T01:51:04;18.83;;;10.47;;
18776;SDS011;9517;51.174;4.160;2022-09-28T01:53:38;21.63;;;10.67;;
18776;SDS011;9517;51.174;4.160;2022-09-28T01:56:09;19.97;;;10.20;;
18776;SDS011;9517;51.174;4.160;2022-09-28T01:58:41;18.03;;;10.40;;
18776;SDS011;9517;51.174;4.160;2022-09-28T02:01:13;20.23;;;11.03;;
18776;SDS011;9517;51.174;4.160;2022-09-28T02:03:45;20.33;;;10.90;;
18776;SDS011;9517;51.174;4.160;2022-09-28T02:06:17;23.53;;;11.57;;
18776;SDS011;9517;51.174;4.160;2022-09-28T02:08:48;22.93;;;11.83;;
18776;SDS011;9517;51.174;4.160;2022-09-28T02:11:19;20.27;;;11.67;;
18776;SDS011;9517;51.174;4.160;2022-09-28T02:13:49;23.50;;;11.83;;
18776;SDS011;9517;51.174;4.160;2022-09-28T02:16:21;23.00;;;12.63;;
18776;SDS011;9517;51.174;4.160;2022-09-28T02:18:56;23.63;;;12.83;;
18776;SDS011;9517;51.174;4.160;2022-09-28T02:21:25;28.83;;;13.73;;
18776;SDS011;9517;51.174;4.160;2022-09-28T02:26:42;25.57;;;14.80;;
18776;SDS011;9517;51.174;4.160;2022-09-28T02:29:15;24.63;;;13.60;;
18776;SDS011;9517;51.174;4.160;2022-09-28T02:31:42;29.27;;;14.67;;
18776;SDS011;9517;51.174;4.160;2022-09-28T02:34:09;29.57;;;15.57;;
18776;SDS011;9517;51.174;4.160;2022-09-28T02:36:39;32.73;;;16.17;;
18776;SDS011;9517;51.174;4.160;2022-09-28T02:39:11;29.73;;;15.67;;
18776;SDS011;9517;51.174;4.160;2022-09-28T02:41:44;27.93;;;16.87;;
18776;SDS011;9517;51.174;4.160;2022-09-28T02:44:28;31.33;;;16.30;;
18776;SDS011;9517;51.174;4.160;2022-09-28T02:47:08;31.33;;;16.27;;
18776;SDS011;9517;51.174;4.160;2022-09-28T02:49:43;27.20;;;15.40;;
18776;SDS011;9517;51.174;4.160;2022-09-28T02:52:26;30.23;;;16.77;;
18776;SDS011;9517;51.174;4.160;2022-09-28T02:55:08;29.10;;;16.27;;
18776;SDS011;9517;51.174;4.160;2022-09-28T02:57:52;30.00;;;15.77;;
18776;SDS011;9517;51.174;4.160;2022-09-28T03:00:35;29.50;;;16.33;;
18776;SDS011;9517;51.174;4.160;2022-09-28T03:03:12;28.60;;;16.07;;
18776;SDS011;9517;51.174;4.160;2022-09-28T03:05:46;27.50;;;15.23;;
18776;SDS011;9517;51.174;4.160;2022-09-28T03:08:22;28.93;;;14.87;;
18776;SDS011;9517;51.174;4.160;2022-09-28T03:10:52;27.37;;;15.57;;
18776;SDS011;9517;51.174;4.160;2022-09-28T03:13:24;26.93;;;14.17;;
18776;SDS011;9517;51.174;4.160;2022-09-28T03:16:02;27.47;;;13.73;;
18776;SDS011;9517;51.174;4.160;2022-09-28T03:18:35;27.73;;;13.60;;
18776;SDS011;9517;51.174;4.160;2022-09-28T03:21:03;25.67;;;13.53;;
18776;SDS011;9517;51.174;4.160;2022-09-28T03:23:30;26.70;;;13.40;;
18776;SDS011;9517;51.174;4.160;2022-09-28T03:25:58;27.20;;;13.63;;
18776;SDS011;9517;51.174;4.160;2022-09-28T03:28:26;29.23;;;14.63;;
18776;SDS011;9517;51.174;4.160;2022-09-28T03:30:55;27.53;;;14.60;;
18776;SDS011;9517;51.174;4.160;2022-09-28T03:33:22;26.47;;;14.67;;
18776;SDS011;9517;51.174;4.160;2022-09-28T03:35:49;29.43;;;13.97;;
18776;SDS011;9517;51.174;4.160;2022-09-28T03:38:16;24.40;;;14.53;;
18776;SDS011;9517;51.174;4.160;2022-09-28T03:40:44;22.60;;;13.10;;
18776;SDS011;9517;51.174;4.160;2022-09-28T03:43:18;30.83;;;14.40;;
18776;SDS011;9517;51.174;4.160;2022-09-28T03:45:50;22.37;;;12.53;;
18776;SDS011;9517;51.174;4.160;2022-09-28T03:48:22;24.97;;;13.73;;
18776;SDS011;9517;51.174;4.160;2022-09-28T03:50:53;25.63;;;12.93;;
18776;SDS011;9517;51.174;4.160;2022-09-28T03:53:22;25.67;;;13.43;;
18776;SDS011;9517;51.174;4.160;2022-09-28T03:55:50;24.77;;;13.20;;
18776;SDS011;9517;51.174;4.160;2022-09-28T03:58:17;27.93;;;13.73;;
18776;SDS011;9517;51.174;4.160;2022-09-28T04:00:45;25.57;;;12.97;;
18776;SDS011;9517;51.174;4.160;2022-09-28T04:03:12;25.67;;;12.73;;
18776;SDS011;9517;51.174;4.160;2022-09-28T04:05:48;20.07;;;11.53;;
18776;SDS011;9517;51.174;4.160;2022-09-28T04:08:15;26.67;;;12.37;;
18776;SDS011;9517;51.174;4.160;2022-09-28T04:10:43;25.93;;;12.10;;
18776;SDS011;9517;51.174;4.160;2022-09-28T04:13:10;21.37;;;11.70;;
18776;SDS011;9517;51.174;4.160;2022-09-28T04:15:37;25.47;;;12.07;;
18776;SDS011;9517;51.174;4.160;2022-09-28T04:18:07;22.87;;;11.73;;
18776;SDS011;9517;51.174;4.160;2022-09-28T04:20:35;26.07;;;12.03;;
18776;SDS011;9517;51.174;4.160;2022-09-28T04:23:06;23.03;;;11.27;;
18776;SDS011;9517;51.174;4.160;2022-09-28T04:25:34;26.27;;;12.13;;
18776;SDS011;9517;51.174;4.160;2022-09-28T04:28:01;26.50;;;10.83;;
18776;SDS011;9517;51.174;4.160;2022-09-28T04:30:45;21.93;;;11.17;;
18776;SDS011;9517;51.174;4.160;2022-09-28T04:33:13;23.53;;;11.20;;
18776;SDS011;9517;51.174;4.160;2022-09-28T04:35:40;21.40;;;11.73;;
18776;SDS011;9517;51.174;4.160;2022-09-28T04:38:08;21.23;;;10.27;;
18776;SDS011;9517;51.174;4.160;2022-09-28T04:40:35;17.70;;;10.07;;
18776;SDS011;9517;51.174;4.160;2022-09-28T04:43:02;20.67;;;10.27;;
18776;SDS011;9517;51.174;4.160;2022-09-28T04:45:29;20.67;;;11.07;;
18776;SDS011;9517;51.174;4.160;2022-09-28T04:47:56;26.73;;;12.50;;
18776;SDS011;9517;51.174;4.160;2022-09-28T04:50:23;22.03;;;11.83;;
18776;SDS011;9517;51.174;4.160;2022-09-28T04:52:50;24.17;;;12.13;;
18776;SDS011;9517;51.174;4.160;2022-09-28T04:55:22;22.73;;;11.93;;
18776;SDS011;9517;51.174;4.160;2022-09-28T04:57:49;22.53;;;11.90;;
18776;SDS011;9517;51.174;4.160;2022-09-28T05:00:16;29.47;;;12.47;;
18776;SDS011;9517;51.174;4.160;2022-09-28T05:02:43;25.70;;;13.27;;
18776;SDS011;9517;51.174;4.160;2022-09-28T05:05:10;26.47;;;13.03;;
18776;SDS011;9517;51.174;4.160;2022-09-28T05:07:40;27.30;;;12.97;;
18776;SDS011;9517;51.174;4.160;2022-09-28T05:10:09;24.27;;;12.97;;
18776;SDS011;9517;51.174;4.160;2022-09-28T05:12:38;25.00;;;13.10;;
18776;SDS011;9517;51.174;4.160;2022-09-28T05:15:05;23.10;;;12.53;;
18776;SDS011;9517;51.174;4.160;2022-09-28T05:17:33;24.70;;;13.87;;
18776;SDS011;9517;51.174;4.160;2022-09-28T05:20:00;24.50;;;13.90;;
18776;SDS011;9517;51.174;4.160;2022-09-28T05:22:29;31.63;;;13.63;;
18776;SDS011;9517;51.174;4.160;2022-09-28T05:24:57;24.60;;;14.63;;
18776;SDS011;9517;51.174;4.160;2022-09-28T05:27:26;30.30;;;15.37;;
18776;SDS011;9517;51.174;4.160;2022-09-28T05:29:55;28.13;;;14.67;;
18776;SDS011;9517;51.174;4.160;2022-09-28T05:32:22;30.03;;;15.00;;
18776;SDS011;9517;51.174;4.160;2022-09-28T05:34:49;26.53;;;15.47;;
18776;SDS011;9517;51.174;4.160;2022-09-28T05:37:16;28.60;;;16.00;;
18776;SDS011;9517;51.174;4.160;2022-09-28T05:39:43;35.23;;;16.63;;
18776;SDS011;9517;51.174;4.160;2022-09-28T05:42:10;30.50;;;16.40;;
18776;SDS011;9517;51.174;4.160;2022-09-28T05:44:38;34.73;;;16.20;;
18776;SDS011;9517;51.174;4.160;2022-09-28T05:47:06;32.97;;;15.43;;
18776;SDS011;9517;51.174;4.160;2022-09-28T05:49:36;27.53;;;14.47;;
18776;SDS011;9517;51.174;4.160;2022-09-28T05:52:03;32.13;;;14.87;;
18776;SDS011;9517;51.174;4.160;2022-09-28T05:54:30;27.43;;;16.10;;
18776;SDS011;9517;51.174;4.160;2022-09-28T05:56:57;26.77;;;14.17;;
18776;SDS011;9517;51.174;4.160;2022-09-28T05:59:24;28.17;;;15.80;;
18776;SDS011;9517;51.174;4.160;2022-09-28T06:01:54;28.90;;;15.27;;
18776;SDS011;9517;51.174;4.160;2022-09-28T06:04:23;29.93;;;15.80;;
18776;SDS011;9517;51.174;4.160;2022-09-28T06:06:49;29.07;;;15.53;;
18776;SDS011;9517;51.174;4.160;2022-09-28T06:09:16;27.47;;;15.13;;
18776;SDS011;9517;51.174;4.160;2022-09-28T06:11:44;26.57;;;14.87;;
18776;SDS011;9517;51.174;4.160;2022-09-28T06:14:11;25.10;;;14.87;;
18776;SDS011;9517;51.174;4.160;2022-09-28T06:16:38;31.77;;;15.63;;
18776;SDS011;9517;51.174;4.160;2022-09-28T06:19:06;27.50;;;16.70;;
18776;SDS011;9517;51.174;4.160;2022-09-28T06:21:35;27.47;;;16.33;;
18776;SDS011;9517;51.174;4.160;2022-09-28T06:24:02;29.30;;;16.50;;
18776;SDS011;9517;51.174;4.160;2022-09-28T06:26:29;31.10;;;16.63;;
18776;SDS011;9517;51.174;4.160;2022-09-28T06:28:56;35.93;;;17.33;;
18776;SDS011;9517;51.174;4.160;2022-09-28T06:31:24;30.13;;;16.20;;
18776;SDS011;9517;51.174;4.160;2022-09-28T06:33:54;29.43;;;17.10;;
18776;SDS011;9517;51.174;4.160;2022-09-28T06:36:21;32.17;;;17.10;;
18776;SDS011;9517;51.174;4.160;2022-09-28T06:38:50;33.67;;;17.60;;
18776;SDS011;9517;51.174;4.160;2022-09-28T06:41:17;33.27;;;17.43;;
18776;SDS011;9517;51.174;4.160;2022-09-28T06:43:44;31.27;;;18.63;;
18776;SDS011;9517;51.174;4.160;2022-09-28T06:46:13;30.93;;;17.63;;
18776;SDS011;9517;51.174;4.160;2022-09-28T06:48:40;30.50;;;17.10;;
18776;SDS011;9517;51.174;4.160;2022-09-28T06:51:09;41.27;;;17.80;;
18776;SDS011;9517;51.174;4.160;2022-09-28T06:53:36;28.10;;;16.20;;
18776;SDS011;9517;51.174;4.160;2022-09-28T06:56:07;31.13;;;16.70;;
18776;SDS011;9517;51.174;4.160;2022-09-28T06:58:34;30.03;;;17.50;;
18776;SDS011;9517;51.174;4.160;2022-09-28T07:01:01;35.37;;;17.53;;
18776;SDS011;9517;51.174;4.160;2022-09-28T07:03:28;28.10;;;17.47;;
18776;SDS011;9517;51.174;4.160;2022-09-28T07:05:55;34.30;;;17.83;;
18776;SDS011;9517;51.174;4.160;2022-09-28T07:08:23;31.90;;;17.30;;
18776;SDS011;9517;51.174;4.160;2022-09-28T07:10:53;36.93;;;18.00;;
18776;SDS011;9517;51.174;4.160;2022-09-28T07:13:23;27.03;;;17.07;;
18776;SDS011;9517;51.174;4.160;2022-09-28T07:15:55;28.97;;;17.30;;
18776;SDS011;9517;51.174;4.160;2022-09-28T07:18:23;28.63;;;16.63;;
18776;SDS011;9517;51.174;4.160;2022-09-28T07:20:50;32.07;;;16.63;;
18776;SDS011;9517;51.174;4.160;2022-09-28T07:23:18;24.93;;;15.47;;
18776;SDS011;9517;51.174;4.160;2022-09-28T07:25:45;36.93;;;14.73;;
18776;SDS011;9517;51.174;4.160;2022-09-28T07:28:14;28.60;;;15.27;;
18776;SDS011;9517;51.174;4.160;2022-09-28T07:30:43;25.13;;;13.67;;
18776;SDS011;9517;51.174;4.160;2022-09-28T07:33:11;22.00;;;12.90;;
18776;SDS011;9517;51.174;4.160;2022-09-28T07:35:41;25.13;;;13.17;;
18776;SDS011;9517;51.174;4.160;2022-09-28T07:38:16;22.87;;;13.30;;
18776;SDS011;9517;51.174;4.160;2022-09-28T07:40:45;21.70;;;12.57;;
18776;SDS011;9517;51.174;4.160;2022-09-28T07:43:41;26.40;;;12.70;;
18776;SDS011;9517;51.174;4.160;2022-09-28T07:46:09;25.97;;;12.30;;
18776;SDS011;9517;51.174;4.160;2022-09-28T07:48:38;28.47;;;12.13;;
18776;SDS011;9517;51.174;4.160;2022-09-28T07:51:06;29.00;;;12.20;;
18776;SDS011;9517;51.174;4.160;2022-09-28T07:53:34;23.50;;;10.90;;
18776;SDS011;9517;51.174;4.160;2022-09-28T07:56:02;23.87;;;11.23;;
18776;SDS011;9517;51.174;4.160;2022-09-28T07:58:31;24.83;;;10.87;;
18776;SDS011;9517;51.174;4.160;2022-09-28T08:01:01;24.53;;;10.80;;
18776;SDS011;9517;51.174;4.160;2022-09-28T08:03:35;28.40;;;11.63;;
18776;SDS011;9517;51.174;4.160;2022-09-28T08:06:09;25.90;;;11.87;;
18776;SDS011;9517;51.174;4.160;2022-09-28T08:08:38;22.63;;;10.73;;
18776;SDS011;9517;51.174;4.160;2022-09-28T08:11:09;26.03;;;12.37;;
18776;SDS011;9517;51.174;4.160;2022-09-28T08:13:37;26.87;;;10.70;;
18776;SDS011;9517;51.174;4.160;2022-09-28T08:16:04;22.83;;;9.70;;
18776;SDS011;9517;51.174;4.160;2022-09-28T08:18:35;18.97;;;8.87;;
18776;SDS011;9517;51.174;4.160;2022-09-28T08:21:03;19.03;;;7.83;;
18776;SDS011;9517;51.174;4.160;2022-09-28T08:23:49;19.27;;;8.70;;
18776;SDS011;9517;51.174;4.160;2022-09-28T08:26:17;19.67;;;7.90;;
18776;SDS011;9517;51.174;4.160;2022-09-28T08:28:43;17.27;;;7.53;;
18776;SDS011;9517;51.174;4.160;2022-09-28T08:31:11;19.60;;;6.90;;
18776;SDS011;9517;51.174;4.160;2022-09-28T08:33:40;23.67;;;6.90;;
18776;SDS011;9517;51.174;4.160;2022-09-28T08:36:08;24.67;;;6.60;;
18776;SDS011;9517;51.174;4.160;2022-09-28T08:38:35;23.93;;;6.73;;
18776;SDS011;9517;51.174;4.160;2022-09-28T08:41:05;17.17;;;6.17;;
18776;SDS011;9517;51.174;4.160;2022-09-28T08:43:49;10.50;;;5.07;;
18776;SDS011;9517;51.174;4.160;2022-09-28T08:46:28;18.17;;;5.90;;
18776;SDS011;9517;51.174;4.160;2022-09-28T08:49:01;13.57;;;5.87;;
18776;SDS011;9517;51.174;4.160;2022-09-28T08:51:33;15.57;;;5.67;;
18776;SDS011;9517;51.174;4.160;2022-09-28T08:54:05;14.97;;;5.40;;
18776;SDS011;9517;51.174;4.160;2022-09-28T08:56:38;14.77;;;5.80;;
18776;SDS011;9517;51.174;4.160;2022-09-28T08:59:10;15.63;;;5.80;;
18776;SDS011;9517;51.174;4.160;2022-09-28T09:01:41;13.70;;;5.40;;
18776;SDS011;9517;51.174;4.160;2022-09-28T09:04:14;17.23;;;5.63;;
18776;SDS011;9517;51.174;4.160;2022-09-28T09:06:55;16.73;;;6.13;;
18776;SDS011;9517;51.174;4.160;2022-09-28T09:09:43;13.77;;;6.37;;
18776;SDS011;9517;51.174;4.160;2022-09-28T09:12:24;18.47;;;5.70;;
18776;SDS011;9517;51.174;4.160;2022-09-28T09:15:05;18.13;;;6.23;;
18776;SDS011;9517;51.174;4.160;2022-09-28T09:18:06;14.13;;;5.50;;
18776;SDS011;9517;51.174;4.160;2022-09-28T09:20:46;17.97;;;5.70;;
18776;SDS011;9517;51.174;4.160;2022-09-28T09:23:18;15.63;;;4.80;;
18776;SDS011;9517;51.174;4.160;2022-09-28T09:25:53;9.83;;;4.27;;
18776;SDS011;9517;51.174;4.160;2022-09-28T09:31:29;13.27;;;4.80;;
18776;SDS011;9517;51.174;4.160;2022-09-28T09:34:14;13.93;;;5.70;;
18776;SDS011;9517;51.174;4.160;2022-09-28T09:37:04;14.07;;;4.57;;
18776;SDS011;9517;51.174;4.160;2022-09-28T09:39:44;12.47;;;4.43;;
18776;SDS011;9517;51.174;4.160;2022-09-28T09:42:32;11.37;;;4.30;;
18776;SDS011;9517;51.174;4.160;2022-09-28T09:45:16;11.90;;;4.33;;
18776;SDS011;9517;51.174;4.160;2022-09-28T09:47:54;13.67;;;5.27;;
18776;SDS011;9517;51.174;4.160;2022-09-28T09:50:27;15.03;;;3.87;;
18776;SDS011;9517;51.174;4.160;2022-09-28T09:53:01;13.87;;;4.80;;
18776;SDS011;9517;51.174;4.160;2022-09-28T09:55:33;16.20;;;6.07;;
18776;SDS011;9517;51.174;4.160;2022-09-28T09:58:06;19.83;;;7.87;;
18776;SDS011;9517;51.174;4.160;2022-09-28T10:00:37;21.80;;;7.90;;
18776;SDS011;9517;51.174;4.160;2022-09-28T10:03:12;20.30;;;9.53;;
18776;SDS011;9517;51.174;4.160;2022-09-28T10:05:49;22.50;;;10.27;;
18776;SDS011;9517;51.174;4.160;2022-09-28T10:08:23;22.20;;;10.07;;
18776;SDS011;9517;51.174;4.160;2022-09-28T10:10:53;18.50;;;7.10;;
18776;SDS011;9517;51.174;4.160;2022-09-28T10:13:27;13.93;;;4.80;;
18776;SDS011;9517;51.174;4.160;2022-09-28T10:15:56;16.13;;;5.83;;
18776;SDS011;9517;51.174;4.160;2022-09-28T10:18:23;21.57;;;7.40;;
18776;SDS011;9517;51.174;4.160;2022-09-28T10:20:51;15.43;;;6.23;;
18776;SDS011;9517;51.174;4.160;2022-09-28T10:23:23;15.83;;;6.60;;
18776;SDS011;9517;51.174;4.160;2022-09-28T10:25:55;16.73;;;7.40;;
18776;SDS011;9517;51.174;4.160;2022-09-28T10:28:29;19.37;;;7.87;;
18776;SDS011;9517;51.174;4.160;2022-09-28T10:31:05;18.03;;;7.63;;
18776;SDS011;9517;51.174;4.160;2022-09-28T10:33:59;14.80;;;7.57;;
18776;SDS011;9517;51.174;4.160;2022-09-28T10:36:26;17.57;;;8.40;;
18776;SDS011;9517;51.174;4.160;2022-09-28T10:38:55;18.77;;;8.83;;
18776;SDS011;9517;51.174;4.160;2022-09-28T10:41:22;21.93;;;9.00;;
18776;SDS011;9517;51.174;4.160;2022-09-28T10:43:51;20.07;;;9.13;;
18776;SDS011;9517;51.174;4.160;2022-09-28T10:46:30;19.40;;;8.83;;
18776;SDS011;9517;51.174;4.160;2022-09-28T10:48:59;19.47;;;8.50;;
18776;SDS011;9517;51.174;4.160;2022-09-28T10:51:41;18.30;;;7.67;;
18776;SDS011;9517;51.174;4.160;2022-09-28T10:54:16;18.43;;;8.80;;
18776;SDS011;9517;51.174;4.160;2022-09-28T10:56:48;20.20;;;9.30;;
18776;SDS011;9517;51.174;4.160;2022-09-28T10:59:22;19.37;;;9.13;;
18776;SDS011;9517;51.174;4.160;2022-09-28T11:02:03;18.77;;;8.50;;
18776;SDS011;9517;51.174;4.160;2022-09-28T11:04:59;18.93;;;8.97;;
18776;SDS011;9517;51.174;4.160;2022-09-28T11:07:29;19.17;;;9.10;;
18776;SDS011;9517;51.174;4.160;2022-09-28T11:09:59;17.20;;;9.27;;
18776;SDS011;9517;51.174;4.160;2022-09-28T11:12:30;21.10;;;9.07;;
18776;SDS011;9517;51.174;4.160;2022-09-28T11:15:02;19.90;;;9.73;;
18776;SDS011;9517;51.174;4.160;2022-09-28T11:17:34;21.53;;;9.77;;
18776;SDS011;9517;51.174;4.160;2022-09-28T11:20:20;44.57;;;13.63;;
18776;SDS011;9517;51.174;4.160;2022-09-28T11:22:55;25.20;;;11.57;;
18776;SDS011;9517;51.174;4.160;2022-09-28T11:25:25;61.97;;;14.50;;
18776;SDS011;9517;51.174;4.160;2022-09-28T11:27:54;61.43;;;15.80;;
18776;SDS011;9517;51.174;4.160;2022-09-28T11:30:24;72.97;;;15.40;;
18776;SDS011;9517;51.174;4.160;2022-09-28T11:32:56;74.50;;;15.67;;
18776;SDS011;9517;51.174;4.160;2022-09-28T11:35:30;33.80;;;11.37;;
18776;SDS011;9517;51.174;4.160;2022-09-28T11:38:14;15.90;;;9.03;;
18776;SDS011;9517;51.174;4.160;2022-09-28T11:40:53;52.87;;;11.83;;
18776;SDS011;9517;51.174;4.160;2022-09-28T11:43:41;18.77;;;9.43;;
18776;SDS011;9517;51.174;4.160;2022-09-28T11:46:18;19.90;;;10.23;;
18776;SDS011;9517;51.174;4.160;2022-09-28T11:48:51;16.97;;;9.63;;
18776;SDS011;9517;51.174;4.160;2022-09-28T11:51:23;16.60;;;8.27;;
18776;SDS011;9517;51.174;4.160;2022-09-28T11:53:57;14.27;;;7.20;;
18776;SDS011;9517;51.174;4.160;2022-09-28T11:56:32;11.60;;;6.60;;
18776;SDS011;9517;51.174;4.160;2022-09-28T11:59:04;14.37;;;6.53;;
18776;SDS011;9517;51.174;4.160;2022-09-28T12:01:36;18.57;;;7.40;;
18776;SDS011;9517;51.174;4.160;2022-09-28T12:04:08;12.93;;;6.67;;
18776;SDS011;9517;51.174;4.160;2022-09-28T12:06:41;13.63;;;7.27;;
18776;SDS011;9517;51.174;4.160;2022-09-28T12:09:16;12.80;;;4.53;;
18776;SDS011;9517;51.174;4.160;2022-09-28T12:11:49;8.20;;;2.53;;
18776;SDS011;9517;51.174;4.160;2022-09-28T12:14:22;7.47;;;2.10;;
18776;SDS011;9517;51.174;4.160;2022-09-28T12:16:52;5.77;;;1.57;;
18776;SDS011;9517;51.174;4.160;2022-09-28T12:19:26;8.63;;;1.40;;
18776;SDS011;9517;51.174;4.160;2022-09-28T12:21:58;11.47;;;1.30;;
18776;SDS011;9517;51.174;4.160;2022-09-28T12:24:32;10.47;;;0.97;;
18776;SDS011;9517;51.174;4.160;2022-09-28T12:27:10;8.33;;;1.10;;
18776;SDS011;9517;51.174;4.160;2022-09-28T12:29:44;8.00;;;1.00;;
18776;SDS011;9517;51.174;4.160;2022-09-28T12:32:18;2.50;;;0.80;;
18776;SDS011;9517;51.174;4.160;2022-09-28T12:34:52;6.47;;;1.23;;
18776;SDS011;9517;51.174;4.160;2022-09-28T12:37:23;2.50;;;0.60;;
18776;SDS011;9517;51.174;4.160;2022-09-28T12:40:12;2.07;;;0.70;;
18776;SDS011;9517;51.174;4.160;2022-09-28T12:51:49;5.53;;;0.90;;
18776;SDS011;9517;51.174;4.160;2022-09-28T12:54:22;8.33;;;1.30;;
18776;SDS011;9517;51.174;4.160;2022-09-28T12:57:22;5.00;;;1.10;;
18776;SDS011;9517;51.174;4.160;2022-09-28T13:00:04;4.07;;;1.10;;
18776;SDS011;9517;51.174;4.160;2022-09-28T13:02:44;5.40;;;1.17;;
18776;SDS011;9517;51.174;4.160;2022-09-28T13:08:27;4.80;;;1.03;;
18776;SDS011;9517;51.174;4.160;2022-09-28T13:11:04;3.87;;;1.00;;
18776;SDS011;9517;51.174;4.160;2022-09-28T13:13:44;8.13;;;1.10;;
18776;SDS011;9517;51.174;4.160;2022-09-28T13:16:21;6.10;;;1.10;;
18776;SDS011;9517;51.174;4.160;2022-09-28T13:18:57;3.60;;;0.77;;
18776;SDS011;9517;51.174;4.160;2022-09-28T13:21:34;2.93;;;0.57;;
18776;SDS011;9517;51.174;4.160;2022-09-28T13:24:10;5.10;;;1.00;;
18776;SDS011;9517;51.174;4.160;2022-09-28T13:26:43;5.50;;;0.90;;
18776;SDS011;9517;51.174;4.160;2022-09-28T13:29:13;2.67;;;0.80;;
18776;SDS011;9517;51.174;4.160;2022-09-28T13:31:45;5.07;;;1.03;;
18776;SDS011;9517;51.174;4.160;2022-09-28T13:34:16;6.30;;;0.67;;
18776;SDS011;9517;51.174;4.160;2022-09-28T13:39:48;3.97;;;0.90;;
18776;SDS011;9517;51.174;4.160;2022-09-28T13:45:29;3.43;;;0.90;;
18776;SDS011;9517;51.174;4.160;2022-09-28T13:48:13;4.93;;;0.97;;
18776;SDS011;9517;51.174;4.160;2022-09-28T13:53:48;4.87;;;0.80;;
18776;SDS011;9517;51.174;4.160;2022-09-28T13:56:27;8.27;;;1.13;;
18776;SDS011;9517;51.174;4.160;2022-09-28T13:59:02;6.10;;;1.60;;
18776;SDS011;9517;51.174;4.160;2022-09-28T14:01:39;6.40;;;1.20;;
18776;SDS011;9517;51.174;4.160;2022-09-28T14:04:13;4.33;;;0.83;;
18776;SDS011;9517;51.174;4.160;2022-09-28T14:06:48;3.97;;;1.20;;
18776;SDS011;9517;51.174;4.160;2022-09-28T14:12:30;5.73;;;1.00;;
18776;SDS011;9517;51.174;4.160;2022-09-28T14:18:19;4.70;;;1.03;;
18776;SDS011;9517;51.174;4.160;2022-09-28T14:21:10;6.27;;;1.30;;
18776;SDS011;9517;51.174;4.160;2022-09-28T14:24:07;6.53;;;1.03;;
18776;SDS011;9517;51.174;4.160;2022-09-28T14:26:54;6.93;;;1.33;;
18776;SDS011;9517;51.174;4.160;2022-09-28T14:29:41;8.50;;;1.20;;
18776;SDS011;9517;51.174;4.160;2022-09-28T14:32:21;6.70;;;1.03;;
18776;SDS011;9517;51.174;4.160;2022-09-28T14:34:54;4.70;;;1.13;;
18776;SDS011;9517;51.174;4.160;2022-09-28T14:37:27;5.03;;;1.10;;
18776;SDS011;9517;51.174;4.160;2022-09-28T14:40:20;5.67;;;1.43;;
18776;SDS011;9517;51.174;4.160;2022-09-28T14:43:26;5.67;;;1.50;;
18776;SDS011;9517;51.174;4.160;2022-09-28T14:49:02;5.83;;;0.80;;
18776;SDS011;9517;51.174;4.160;2022-09-28T14:54:28;5.90;;;1.10;;
18776;SDS011;9517;51.174;4.160;2022-09-28T14:57:11;6.83;;;2.00;;
18776;SDS011;9517;51.174;4.160;2022-09-28T14:59:42;6.63;;;1.20;;
18776;SDS011;9517;51.174;4.160;2022-09-28T15:02:15;4.07;;;0.87;;
18776;SDS011;9517;51.174;4.160;2022-09-28T15:04:52;9.30;;;0.97;;
18776;SDS011;9517;51.174;4.160;2022-09-28T15:07:24;4.93;;;1.03;;
18776;SDS011;9517;51.174;4.160;2022-09-28T15:09:54;6.40;;;1.00;;
18776;SDS011;9517;51.174;4.160;2022-09-28T15:12:25;5.97;;;1.00;;
18776;SDS011;9517;51.174;4.160;2022-09-28T15:14:57;5.33;;;0.80;;
18776;SDS011;9517;51.174;4.160;2022-09-28T15:17:27;5.30;;;0.93;;
18776;SDS011;9517;51.174;4.160;2022-09-28T15:20:00;4.90;;;1.13;;
18776;SDS011;9517;51.174;4.160;2022-09-28T15:22:46;6.60;;;1.27;;
18776;SDS011;9517;51.174;4.160;2022-09-28T15:25:20;6.57;;;1.00;;
18776;SDS011;9517;51.174;4.160;2022-09-28T15:27:51;4.13;;;1.07;;
18776;SDS011;9517;51.174;4.160;2022-09-28T15:30:24;7.17;;;1.10;;
18776;SDS011;9517;51.174;4.160;2022-09-28T15:32:53;3.27;;;0.80;;
18776;SDS011;9517;51.174;4.160;2022-09-28T15:35:41;4.57;;;0.77;;
18776;SDS011;9517;51.174;4.160;2022-09-28T15:38:12;5.23;;;1.30;;
18776;SDS011;9517;51.174;4.160;2022-09-28T15:40:42;3.33;;;0.90;;
18776;SDS011;9517;51.174;4.160;2022-09-28T15:43:20;3.53;;;0.70;;
18776;SDS011;9517;51.174;4.160;2022-09-28T15:45:54;2.73;;;0.90;;
18776;SDS011;9517;51.174;4.160;2022-09-28T15:48:27;3.57;;;0.63;;
18776;SDS011;9517;51.174;4.160;2022-09-28T15:50:58;3.93;;;0.80;;
18776;SDS011;9517;51.174;4.160;2022-09-28T15:53:34;5.13;;;1.07;;
18776;SDS011;9517;51.174;4.160;2022-09-28T15:56:03;3.03;;;0.77;;